createdAt,value
2022-11-29T00:01:16.602Z,24.70
2022-11-29T00:03:43.578Z,24.08
2022-11-29T00:06:13.371Z,25.65
2022-11-29T00:08:41.433Z,23.05
2022-11-29T00:11:11.783Z,25.13
2022-11-29T00:13:38.868Z,25.73
2022-11-29T00:16:12.058Z,25.27
2022-11-29T00:18:38.968Z,25.27
2022-11-29T00:21:07.340Z,26.23
2022-11-29T00:23:34.925Z,23.67
2022-11-29T00:26:08.778Z,23.48
2022-11-29T00:28:36.623Z,25.48
2022-11-29T00:31:24.162Z,25.13
2022-11-29T00:33:51.655Z,23.23
2022-11-29T00:36:18.935Z,25.27
2022-11-29T00:38:46.262Z,24.95
2022-11-29T00:41:13.286Z,24.20
2022-11-29T00:43:40.259Z,25.58
2022-11-29T00:46:07.645Z,25.05
2022-11-29T00:48:35.209Z,25.67
2022-11-29T00:51:03.292Z,26.17
2022-11-29T00:53:30.001Z,25.52
2022-11-29T00:55:57.174Z,25.20
2022-11-29T00:58:24.077Z,24.67
2022-11-29T01:00:52.442Z,24.35
2022-11-29T01:03:19.331Z,25.17
2022-11-29T01:05:46.196Z,23.90
2022-11-29T01:08:14.165Z,25.00
2022-11-29T01:10:41.452Z,25.25
2022-11-29T01:13:09.420Z,24.30
2022-11-29T01:15:37.183Z,23.80
2022-11-29T01:18:04.027Z,25.02
2022-11-29T01:20:30.797Z,25.75
2022-11-29T01:22:58.153Z,24.95
2022-11-29T01:25:25.086Z,26.83
2022-11-29T01:27:51.869Z,24.95
2022-11-29T01:30:18.593Z,26.15
2022-11-29T01:32:45.321Z,24.60
2022-11-29T01:35:12.206Z,24.70
2022-11-29T01:37:38.950Z,23.58
2022-11-29T01:40:06.549Z,24.48
2022-11-29T01:42:33.415Z,24.02
2022-11-29T01:45:01.939Z,23.80
2022-11-29T01:47:29.113Z,23.83
2022-11-29T01:49:55.974Z,24.23
2022-11-29T01:52:26.011Z,23.85
2022-11-29T01:54:58.205Z,23.85
2022-11-29T01:57:25.875Z,24.77
2022-11-29T01:59:58.179Z,23.55
2022-11-29T02:02:48.843Z,24.40
2022-11-29T02:05:18.609Z,23.40
2022-11-29T02:07:49.703Z,25.65
2022-11-29T02:10:17.153Z,23.48
2022-11-29T02:12:54.241Z,24.35
2022-11-29T02:15:36.307Z,24.73
2022-11-29T02:18:07.849Z,23.58
2022-11-29T02:21:08.602Z,23.88
2022-11-29T02:23:44.568Z,23.77
2022-11-29T02:26:34.874Z,23.15
2022-11-29T02:29:30.748Z,24.38
2022-11-29T02:34:37.062Z,22.45
2022-11-29T02:37:22.643Z,21.88
2022-11-29T02:42:56.240Z,23.55
2022-11-29T02:45:34.622Z,23.05
2022-11-29T02:48:23.452Z,23.13
2022-11-29T02:51:12.135Z,24.30
2022-11-29T02:53:57.013Z,23.38
2022-11-29T02:56:43.371Z,17.52
2022-11-29T02:59:34.690Z,24.33
2022-11-29T03:02:23.358Z,23.95
2022-11-29T03:05:27.995Z,21.50
2022-11-29T03:08:25.223Z,24.27
2022-11-29T03:11:19.403Z,22.65
2022-11-29T03:13:57.354Z,22.90
2022-11-29T03:16:45.166Z,23.23
2022-11-29T03:19:39.489Z,22.88
2022-11-29T03:22:15.571Z,23.83
2022-11-29T03:24:56.029Z,24.02
2022-11-29T03:27:40.228Z,23.92
2022-11-29T03:30:10.656Z,22.08
2022-11-29T03:33:18.978Z,24.70
2022-11-29T03:36:17.589Z,22.15
2022-11-29T03:38:46.552Z,24.20
2022-11-29T03:41:43.408Z,24.58
2022-11-29T03:44:15.730Z,24.98
2022-11-29T03:46:58.534Z,26.95
2022-11-29T03:49:40.973Z,23.33
2022-11-29T03:52:15.964Z,24.23
2022-11-29T03:57:11.031Z,23.75
2022-11-29T03:59:57.998Z,24.65
2022-11-29T04:02:46.661Z,24.55
2022-11-29T04:05:31.419Z,23.55
2022-11-29T04:08:08.556Z,25.77
2022-11-29T04:10:54.216Z,26.20
2022-11-29T04:13:48.898Z,26.25
2022-11-29T04:16:33.725Z,27.08
2022-11-29T04:19:24.966Z,28.58
2022-11-29T04:22:20.328Z,27.60
2022-11-29T04:25:01.658Z,28.13
2022-11-29T04:28:10.659Z,25.50
2022-11-29T04:30:53.068Z,29.00
2022-11-29T04:33:30.841Z,27.77
2022-11-29T04:36:18.261Z,27.90
2022-11-29T04:39:04.973Z,29.75
2022-11-29T04:41:52.899Z,28.17
2022-11-29T04:44:44.524Z,28.38
2022-11-29T04:47:48.682Z,30.48
2022-11-29T04:50:24.389Z,31.15
2022-11-29T04:53:05.074Z,32.03
2022-11-29T04:55:59.017Z,32.35
2022-11-29T04:58:50.753Z,33.03
2022-11-29T05:01:35.750Z,32.70
2022-11-29T05:04:05.463Z,32.92
2022-11-29T05:06:45.095Z,34.63
2022-11-29T05:09:42.714Z,36.38
2022-11-29T05:12:15.241Z,37.60
2022-11-29T05:14:54.342Z,37.55
2022-11-29T05:17:47.483Z,39.58
2022-11-29T05:20:33.173Z,33.25
2022-11-29T05:23:02.845Z,35.40
2022-11-29T05:25:39.818Z,35.13
2022-11-29T05:28:24.714Z,33.90
2022-11-29T05:31:24.876Z,25.60
2022-11-29T05:34:30.254Z,32.92
2022-11-29T05:37:22.139Z,33.35
2022-11-29T05:40:33.644Z,35.63
2022-11-29T05:43:34.613Z,35.47
2022-11-29T05:46:38.411Z,33.50
2022-11-29T05:49:29.878Z,31.67
2022-11-29T05:52:15.141Z,31.23
2022-11-29T05:55:13.931Z,29.15
2022-11-29T05:58:00.754Z,29.08
2022-11-29T06:00:44.416Z,27.42
2022-11-29T06:03:39.430Z,27.80
2022-11-29T06:06:14.201Z,19.17
2022-11-29T06:09:00.687Z,26.85
2022-11-29T06:12:19.536Z,25.60
2022-11-29T06:15:25.297Z,23.88
2022-11-29T06:18:08.502Z,24.92
2022-11-29T06:21:08.417Z,25.98
2022-11-29T06:23:58.627Z,25.02
2022-11-29T06:26:44.861Z,25.55
2022-11-29T06:29:24.050Z,25.50
2022-11-29T06:32:08.385Z,26.67
2022-11-29T06:34:44.145Z,24.98
2022-11-29T06:37:23.565Z,25.33
2022-11-29T06:39:50.691Z,26.23
2022-11-29T06:42:17.656Z,27.88
2022-11-29T06:44:44.931Z,28.92
2022-11-29T06:47:30.684Z,27.40
2022-11-29T06:50:05.298Z,25.50
2022-11-29T06:52:46.251Z,26.60
2022-11-29T06:55:32.202Z,26.65
2022-11-29T06:57:58.859Z,27.35
2022-11-29T07:00:28.572Z,25.98
2022-11-29T07:03:36.840Z,24.77
2022-11-29T07:06:23.797Z,24.25
2022-11-29T07:09:10.544Z,23.20
2022-11-29T07:11:37.804Z,23.58
2022-11-29T07:14:04.913Z,24.13
2022-11-29T07:16:37.591Z,25.20
2022-11-29T07:19:28.376Z,27.10
2022-11-29T07:22:09.903Z,27.80
2022-11-29T07:24:47.858Z,28.10
2022-11-29T07:27:27.714Z,30.10
2022-11-29T07:30:11.470Z,31.42
2022-11-29T07:33:00.501Z,28.67
2022-11-29T07:35:30.435Z,31.88
2022-11-29T07:38:44.954Z,31.10
2022-11-29T07:41:29.248Z,31.17
2022-11-29T07:44:01.855Z,30.55
2022-11-29T07:46:29.209Z,35.97
2022-11-29T07:48:56.127Z,39.80
2022-11-29T07:51:22.978Z,40.70
2022-11-29T07:53:49.871Z,39.38
2022-11-29T07:56:16.694Z,48.55
2022-11-29T07:58:43.686Z,51.15
2022-11-29T08:01:10.804Z,45.67
2022-11-29T08:03:37.898Z,45.30
2022-11-29T08:06:04.778Z,43.60
2022-11-29T08:08:31.726Z,48.40
2022-11-29T08:10:58.482Z,53.67
2022-11-29T08:13:25.192Z,54.58
2022-11-29T08:15:52.015Z,47.03
2022-11-29T08:18:18.931Z,47.97
2022-11-29T08:20:46.365Z,42.90
2022-11-29T08:23:14.380Z,43.80
2022-11-29T08:25:41.950Z,52.00
2022-11-29T08:28:09.119Z,46.95
2022-11-29T08:30:35.865Z,43.10
2022-11-29T08:33:02.931Z,45.05
2022-11-29T08:35:31.590Z,44.30
2022-11-29T08:37:58.536Z,40.45
2022-11-29T08:40:25.519Z,39.35
2022-11-29T08:42:52.336Z,41.22
2022-11-29T08:45:19.157Z,39.92
2022-11-29T08:47:46.080Z,43.97
2022-11-29T08:50:18.112Z,40.95
2022-11-29T08:53:07.710Z,41.70
2022-11-29T08:55:37.680Z,40.03
2022-11-29T08:58:10.102Z,39.45
2022-11-29T09:00:37.831Z,38.22
2022-11-29T09:03:24.947Z,38.53
2022-11-29T09:05:52.915Z,36.38
2022-11-29T09:08:20.185Z,38.30
2022-11-29T09:10:48.745Z,35.00
2022-11-29T09:13:15.541Z,33.65
2022-11-29T09:15:43.567Z,32.97
2022-11-29T09:18:10.947Z,31.98
2022-11-29T09:20:37.763Z,32.45
2022-11-29T09:23:04.879Z,34.17
2022-11-29T09:25:31.648Z,32.03
2022-11-29T09:28:02.937Z,32.28
2022-11-29T09:30:31.536Z,32.58
2022-11-29T09:33:05.145Z,32.45
2022-11-29T09:35:32.621Z,31.77
2022-11-29T09:37:59.541Z,31.13
2022-11-29T09:40:37.617Z,32.47
2022-11-29T09:43:48.419Z,32.30
2022-11-29T09:46:58.616Z,34.22
2022-11-29T09:50:16.316Z,31.90
2022-11-29T09:53:38.700Z,31.13
2022-11-29T09:56:29.279Z,31.10
2022-11-29T09:59:10.060Z,35.95
2022-11-29T10:01:54.811Z,35.50
2022-11-29T10:04:37.520Z,33.95
2022-11-29T10:07:36.374Z,35.38
2022-11-29T10:10:18.641Z,34.70
2022-11-29T10:13:11.153Z,35.08
2022-11-29T10:15:44.266Z,36.00
2022-11-29T10:18:19.906Z,32.95
2022-11-29T10:20:49.445Z,34.08
2022-11-29T10:23:33.253Z,32.85
2022-11-29T10:26:00.810Z,31.83
2022-11-29T10:28:31.548Z,33.63
2022-11-29T10:31:28.582Z,32.70
2022-11-29T10:33:58.118Z,31.63
2022-11-29T10:36:40.628Z,33.60
2022-11-29T10:39:21.774Z,32.60
2022-11-29T10:41:54.684Z,30.90
2022-11-29T10:44:21.792Z,37.50
2022-11-29T10:46:48.700Z,30.35
2022-11-29T10:49:18.622Z,30.92
2022-11-29T10:51:48.313Z,32.47
2022-11-29T10:54:38.372Z,30.17
2022-11-29T10:57:14.585Z,31.63
2022-11-29T10:59:41.793Z,30.63
2022-11-29T11:02:19.112Z,32.55
2022-11-29T11:04:48.005Z,29.30
2022-11-29T11:07:25.701Z,31.20
2022-11-29T11:09:56.636Z,31.33
2022-11-29T11:12:30.072Z,29.75
2022-11-29T11:15:26.587Z,27.23
2022-11-29T11:18:04.808Z,27.23
2022-11-29T11:20:37.792Z,27.58
2022-11-29T11:23:07.644Z,26.23
2022-11-29T11:25:40.956Z,27.67
2022-11-29T11:28:23.905Z,28.02
2022-11-29T11:31:11.380Z,26.42
2022-11-29T11:33:43.401Z,26.15
2022-11-29T11:36:27.276Z,27.67
2022-11-29T11:39:12.093Z,24.65
2022-11-29T11:42:01.165Z,21.35
2022-11-29T11:44:49.232Z,29.50
2022-11-29T11:47:24.337Z,29.88
2022-11-29T11:52:46.131Z,27.23
2022-11-29T11:57:43.373Z,29.60
2022-11-29T12:03:45.165Z,28.98
2022-11-29T12:06:35.722Z,28.80
2022-11-29T12:09:25.282Z,28.20
2022-11-29T12:12:00.130Z,28.63
2022-11-29T12:14:42.028Z,28.25
2022-11-29T12:17:31.967Z,30.92
2022-11-29T12:20:10.396Z,27.83
2022-11-29T12:22:48.768Z,30.10
2022-11-29T12:25:21.846Z,32.60
2022-11-29T12:27:52.299Z,27.95
2022-11-29T12:30:19.918Z,30.50
2022-11-29T12:33:17.967Z,29.33
2022-11-29T12:36:00.868Z,30.00
2022-11-29T12:39:07.731Z,28.15
2022-11-29T12:41:59.567Z,27.88
2022-11-29T12:44:43.053Z,27.17
2022-11-29T12:47:37.697Z,27.92
2022-11-29T12:50:14.586Z,28.75
2022-11-29T12:52:59.661Z,28.35
2022-11-29T12:55:53.609Z,29.20
2022-11-29T12:58:55.648Z,27.63
2022-11-29T13:01:58.251Z,26.75
2022-11-29T13:04:59.425Z,27.38
2022-11-29T13:07:46.871Z,25.50
2022-11-29T13:10:48.005Z,26.80
2022-11-29T13:13:20.538Z,26.70
2022-11-29T13:15:58.459Z,27.40
2022-11-29T13:18:43.657Z,28.38
2022-11-29T13:21:17.285Z,26.70
2022-11-29T13:24:10.029Z,25.48
2022-11-29T13:26:39.981Z,24.85
2022-11-29T13:29:15.461Z,22.65
2022-11-29T13:31:43.039Z,23.55
2022-11-29T13:34:42.603Z,22.67
2022-11-29T13:37:24.398Z,23.48
2022-11-29T13:40:03.291Z,25.77
2022-11-29T13:42:33.149Z,25.73
2022-11-29T13:45:21.567Z,24.80
2022-11-29T13:47:58.349Z,24.88
2022-11-29T13:50:37.422Z,23.52
2022-11-29T13:53:13.549Z,24.08
2022-11-29T13:55:50.800Z,25.58
2022-11-29T13:58:32.570Z,24.17
2022-11-29T14:01:00.978Z,24.98
2022-11-29T14:03:34.925Z,25.27
2022-11-29T14:06:01.677Z,25.05
2022-11-29T14:09:10.377Z,32.17
2022-11-29T14:11:44.904Z,30.35
2022-11-29T14:14:17.508Z,29.63
2022-11-29T14:16:44.237Z,28.17
2022-11-29T14:19:33.953Z,28.83
2022-11-29T14:22:06.802Z,28.10
2022-11-29T14:24:36.378Z,27.60
2022-11-29T14:27:06.289Z,27.65
2022-11-29T14:29:50.920Z,28.00
2022-11-29T14:32:26.492Z,28.37
2022-11-29T14:35:11.615Z,27.30
2022-11-29T14:37:49.297Z,28.23
2022-11-29T14:40:41.660Z,28.75
2022-11-29T14:43:36.792Z,28.02
2022-11-29T14:46:15.972Z,24.42
2022-11-29T14:49:03.241Z,28.95
2022-11-29T14:51:32.564Z,26.73
2022-11-29T14:54:14.921Z,26.55
2022-11-29T14:56:46.215Z,28.83
2022-11-29T14:59:41.060Z,25.60
2022-11-29T15:02:20.101Z,22.08
2022-11-29T15:04:50.870Z,28.25
2022-11-29T15:07:23.677Z,27.73
2022-11-29T15:09:51.063Z,27.60
2022-11-29T15:12:23.242Z,26.95
2022-11-29T15:14:58.917Z,26.40
2022-11-29T15:17:49.952Z,28.17
2022-11-29T15:20:40.305Z,26.55
2022-11-29T15:23:14.887Z,27.95
2022-11-29T15:25:52.918Z,27.73
2022-11-29T15:28:27.987Z,27.30
2022-11-29T15:33:43.549Z,27.13
2022-11-29T15:36:18.695Z,27.05
2022-11-29T15:41:27.016Z,27.42
2022-11-29T15:43:57.881Z,26.40
2022-11-29T15:46:29.468Z,27.23
2022-11-29T15:49:14.833Z,26.35
2022-11-29T15:51:42.146Z,29.17
2022-11-29T15:54:28.907Z,29.20
2022-11-29T15:57:04.555Z,27.02
2022-11-29T15:59:36.861Z,26.02
2022-11-29T16:02:31.285Z,28.15
2022-11-29T16:05:16.623Z,25.75
2022-11-29T16:07:46.083Z,29.10
2022-11-29T16:10:17.002Z,27.02
2022-11-29T16:12:54.849Z,28.25
2022-11-29T16:15:31.916Z,28.73
2022-11-29T16:18:12.169Z,28.92
2022-11-29T16:20:39.691Z,27.60
2022-11-29T16:23:13.837Z,30.23
2022-11-29T16:26:04.479Z,21.95
2022-11-29T16:28:40.637Z,30.00
2022-11-29T16:31:12.364Z,29.95
2022-11-29T16:33:42.169Z,22.23
2022-11-29T16:36:24.164Z,32.92
2022-11-29T16:39:04.190Z,31.05
2022-11-29T16:41:36.996Z,30.90
2022-11-29T16:44:05.895Z,31.05
2022-11-29T16:46:40.215Z,27.77
2022-11-29T16:49:34.154Z,30.83
2022-11-29T16:52:01.938Z,30.50
2022-11-29T16:54:36.813Z,28.85
2022-11-29T16:57:09.310Z,30.95
2022-11-29T16:59:39.140Z,29.65
2022-11-29T17:02:10.792Z,30.40
2022-11-29T17:04:37.662Z,31.48
2022-11-29T17:07:07.583Z,29.83
2022-11-29T17:09:35.106Z,32.00
2022-11-29T17:12:02.928Z,33.42
2022-11-29T17:14:29.961Z,34.22
2022-11-29T17:16:57.506Z,29.95
2022-11-29T17:19:34.875Z,32.33
2022-11-29T17:22:05.231Z,32.13
2022-11-29T17:24:32.288Z,30.00
2022-11-29T17:27:02.188Z,30.40
2022-11-29T17:29:29.055Z,32.25
2022-11-29T17:31:56.338Z,31.63
2022-11-29T17:34:23.189Z,30.05
2022-11-29T17:36:50.867Z,30.42
2022-11-29T17:39:21.712Z,29.30
2022-11-29T17:41:55.608Z,28.40
2022-11-29T17:44:22.948Z,31.48
2022-11-29T17:46:49.816Z,30.05
2022-11-29T17:49:18.675Z,28.08
2022-11-29T17:51:53.892Z,28.48
2022-11-29T17:54:25.311Z,28.70
2022-11-29T17:56:52.436Z,28.70
2022-11-29T17:59:19.410Z,26.65
2022-11-29T18:01:48.979Z,26.83
2022-11-29T18:04:21.399Z,27.50
2022-11-29T18:06:55.737Z,29.70
2022-11-29T18:09:22.801Z,22.55
2022-11-29T18:11:50.492Z,28.08
2022-11-29T18:14:23.700Z,30.52
2022-11-29T18:16:53.855Z,30.50
2022-11-29T18:19:31.663Z,29.90
2022-11-29T18:22:07.515Z,31.38
2022-11-29T18:24:43.937Z,28.02
2022-11-29T18:27:10.905Z,27.38
2022-11-29T18:29:39.371Z,26.85
2022-11-29T18:32:06.444Z,30.63
2022-11-29T18:34:36.274Z,26.85
2022-11-29T18:37:03.354Z,27.20
2022-11-29T18:39:30.560Z,28.35
2022-11-29T18:41:57.415Z,28.42
2022-11-29T18:44:29.583Z,27.33
2022-11-29T18:47:04.059Z,27.15
2022-11-29T18:49:33.518Z,31.20
2022-11-29T18:52:00.406Z,30.15
2022-11-29T18:54:29.095Z,29.60
2022-11-29T18:56:55.958Z,29.15
2022-11-29T18:59:37.555Z,28.58
2022-11-29T19:02:10.247Z,30.17
2022-11-29T19:04:40.158Z,38.88
2022-11-29T19:07:06.990Z,33.53
2022-11-29T19:09:33.799Z,31.88
2022-11-29T19:12:03.904Z,32.90
2022-11-29T19:14:36.544Z,66.30
2022-11-29T19:17:03.489Z,67.93
2022-11-29T19:19:32.103Z,31.85
2022-11-29T19:21:59.767Z,28.27
2022-11-29T19:24:35.747Z,28.83
2022-11-29T19:27:04.633Z,32.33
2022-11-29T19:29:36.668Z,30.40
2022-11-29T19:32:08.520Z,36.35
2022-11-29T19:34:35.271Z,38.78
2022-11-29T19:37:02.046Z,39.53
2022-11-29T19:39:30.512Z,32.50
2022-11-29T19:41:57.349Z,36.78
2022-11-29T19:44:29.820Z,33.78
2022-11-29T19:46:56.935Z,30.70
2022-11-29T19:49:27.064Z,33.10
2022-11-29T19:51:54.183Z,48.83
2022-11-29T19:54:21.094Z,38.50
2022-11-29T19:56:48.033Z,32.70
2022-11-29T19:59:18.578Z,34.70
2022-11-29T20:01:52.694Z,33.35
2022-11-29T20:04:19.841Z,50.57
2022-11-29T20:06:46.747Z,39.63
2022-11-29T20:09:14.180Z,46.55
2022-11-29T20:11:44.927Z,39.03
2022-11-29T20:14:18.751Z,35.10
2022-11-29T20:16:46.020Z,37.47
2022-11-29T20:19:15.854Z,33.63
2022-11-29T20:21:45.877Z,35.90
2022-11-29T20:24:14.518Z,38.55
2022-11-29T20:26:49.815Z,38.00
2022-11-29T20:29:17.600Z,40.00
2022-11-29T20:31:50.019Z,37.25
2022-11-29T20:34:18.302Z,42.20
2022-11-29T20:37:20.232Z,37.15
2022-11-29T20:40:02.413Z,36.65
2022-11-29T20:42:34.969Z,34.90
2022-11-29T20:45:09.774Z,35.58
2022-11-29T20:47:53.236Z,38.08
2022-11-29T20:50:28.699Z,36.33
2022-11-29T20:53:31.655Z,38.70
2022-11-29T20:55:58.673Z,39.17
2022-11-29T20:58:26.601Z,39.67
2022-11-29T21:00:59.926Z,37.15
2022-11-29T21:03:34.251Z,36.28
2022-11-29T21:06:03.675Z,38.72
2022-11-29T21:08:30.690Z,38.72
2022-11-29T21:11:10.277Z,36.53
2022-11-29T21:13:37.950Z,43.08
2022-11-29T21:16:09.814Z,49.05
2022-11-29T21:18:37.041Z,38.65
2022-11-29T21:21:07.114Z,42.33
2022-11-29T21:24:07.861Z,39.67
2022-11-29T21:26:41.691Z,46.53
2022-11-29T21:29:14.962Z,38.80
2022-11-29T21:31:42.279Z,37.30
2022-11-29T21:34:09.274Z,38.05
2022-11-29T21:36:37.299Z,44.53
2022-11-29T21:39:06.464Z,38.33
2022-11-29T21:41:33.484Z,35.60
2022-11-29T21:44:08.281Z,39.08
2022-11-29T21:46:35.866Z,57.33
2022-11-29T21:49:03.296Z,39.08
2022-11-29T21:51:30.365Z,39.30
2022-11-29T21:53:57.248Z,42.78
2022-11-29T21:56:27.137Z,41.85
2022-11-29T21:58:54.256Z,38.60
2022-11-29T22:01:21.199Z,42.15
2022-11-29T22:03:47.971Z,42.53
2022-11-29T22:06:20.320Z,42.55
2022-11-29T22:08:48.382Z,40.40
2022-11-29T22:11:30.678Z,37.75
2022-11-29T22:14:18.568Z,35.03
2022-11-29T22:17:00.024Z,36.35
2022-11-29T22:19:32.364Z,37.10
2022-11-29T22:22:01.730Z,35.13
2022-11-29T22:24:31.372Z,36.72
2022-11-29T22:26:58.223Z,37.67
2022-11-29T22:29:25.460Z,34.85
2022-11-29T22:31:54.831Z,35.08
2022-11-29T22:34:22.884Z,49.03
2022-11-29T22:36:49.673Z,39.45
2022-11-29T22:39:16.459Z,36.63
2022-11-29T22:41:43.518Z,33.22
2022-11-29T22:44:10.556Z,33.85
2022-11-29T22:46:40.170Z,36.15
2022-11-29T22:49:07.422Z,34.50
2022-11-29T22:51:36.463Z,36.00
2022-11-29T22:54:06.291Z,31.33
2022-11-29T22:56:36.539Z,34.90
2022-11-29T22:59:04.027Z,36.45
2022-11-29T23:01:32.947Z,35.30
2022-11-29T23:04:03.937Z,37.33
2022-11-29T23:06:33.093Z,34.63
2022-11-29T23:09:10.506Z,36.38
2022-11-29T23:11:37.933Z,37.47
2022-11-29T23:14:04.890Z,38.58
2022-11-29T23:16:32.794Z,37.78
2022-11-29T23:19:00.562Z,34.33
2022-11-29T23:21:33.279Z,35.40
2022-11-29T23:24:01.316Z,34.67
2022-11-29T23:26:38.945Z,36.45
2022-11-29T23:29:07.721Z,34.13
2022-11-29T23:31:34.554Z,36.88
2022-11-29T23:34:02.419Z,36.95
2022-11-29T23:36:29.632Z,36.35
2022-11-29T23:38:56.529Z,36.22
2022-11-29T23:41:23.378Z,35.45
2022-11-29T23:43:50.192Z,34.85
2022-11-29T23:46:19.938Z,32.28
2022-11-29T23:48:47.077Z,30.67
2022-11-29T23:51:14.781Z,29.45
2022-11-29T23:53:42.097Z,28.35
2022-11-29T23:56:15.899Z,25.23
2022-11-29T23:58:44.360Z,23.77
